createdAt,value
2022-11-27T00:02:59.543Z,9.27
2022-11-27T00:06:01.224Z,9.57
2022-11-27T00:09:04.682Z,10.03
2022-11-27T00:12:06.549Z,9.27
2022-11-27T00:15:08.335Z,10.00
2022-11-27T00:18:10.032Z,9.77
2022-11-27T00:21:13.322Z,10.27
2022-11-27T00:24:14.938Z,9.23
2022-11-27T00:27:16.613Z,10.03
2022-11-27T00:30:18.712Z,9.43
2022-11-27T00:33:20.261Z,10.10
2022-11-27T00:36:21.903Z,9.80
2022-11-27T00:39:23.548Z,10.87
2022-11-27T00:42:25.213Z,12.20
2022-11-27T00:45:27.014Z,11.07
2022-11-27T00:48:28.914Z,10.50
2022-11-27T00:51:30.933Z,11.27
2022-11-27T00:54:32.480Z,11.83
2022-11-27T00:57:34.132Z,13.07
2022-11-27T01:00:35.710Z,11.90
2022-11-27T01:03:37.360Z,12.40
2022-11-27T01:06:39.035Z,13.27
2022-11-27T01:09:40.620Z,12.37
2022-11-27T01:12:42.209Z,13.17
2022-11-27T01:15:44.338Z,12.23
2022-11-27T01:18:47.170Z,9.77
2022-11-27T01:21:48.930Z,11.37
2022-11-27T01:24:50.551Z,12.63
2022-11-27T01:27:52.226Z,10.67
2022-11-27T01:30:53.871Z,11.50
2022-11-27T01:33:56.652Z,11.20
2022-11-27T01:36:58.280Z,11.07
2022-11-27T01:39:59.917Z,10.50
2022-11-27T01:43:01.494Z,10.77
2022-11-27T01:46:03.833Z,11.27
2022-11-27T01:49:05.481Z,10.43
2022-11-27T01:52:09.542Z,12.23
2022-11-27T01:55:11.178Z,11.50
2022-11-27T01:58:15.228Z,11.90
2022-11-27T02:01:16.896Z,11.00
2022-11-27T02:04:18.771Z,10.97
2022-11-27T02:07:20.358Z,11.13
2022-11-27T02:10:23.156Z,12.03
2022-11-27T02:13:34.157Z,12.90
2022-11-27T02:16:38.928Z,12.70
2022-11-27T02:19:58.848Z,13.23
2022-11-27T02:23:19.237Z,12.03
2022-11-27T02:26:26.838Z,11.97
2022-11-27T02:29:31.159Z,13.37
2022-11-27T02:32:36.224Z,12.87
2022-11-27T02:35:40.989Z,12.57
2022-11-27T02:38:46.058Z,12.83
2022-11-27T02:41:49.583Z,13.87
2022-11-27T02:44:56.361Z,17.30
2022-11-27T02:47:58.517Z,13.30
2022-11-27T02:51:00.724Z,12.33
2022-11-27T02:54:04.128Z,12.30
2022-11-27T02:57:06.520Z,10.63
2022-11-27T03:00:09.138Z,12.43
2022-11-27T03:03:12.197Z,10.77
2022-11-27T03:06:17.740Z,10.70
2022-11-27T03:09:22.433Z,10.27
2022-11-27T03:12:24.144Z,9.63
2022-11-27T03:15:27.323Z,11.50
2022-11-27T03:18:49.514Z,12.63
2022-11-27T03:21:53.234Z,10.30
2022-11-27T03:24:55.162Z,10.57
2022-11-27T03:27:59.054Z,10.43
2022-11-27T03:31:01.156Z,11.43
2022-11-27T03:34:02.827Z,11.17
2022-11-27T03:37:04.998Z,11.00
2022-11-27T03:40:07.189Z,11.83
2022-11-27T03:43:13.532Z,10.03
2022-11-27T03:46:22.517Z,11.43
2022-11-27T03:49:47.076Z,11.50
2022-11-27T03:52:48.651Z,10.93
2022-11-27T03:55:53.071Z,12.03
2022-11-27T03:58:56.833Z,11.87
2022-11-27T04:01:58.501Z,9.90
2022-11-27T04:05:00.111Z,10.33
2022-11-27T04:08:01.923Z,10.77
2022-11-27T04:11:03.611Z,12.67
2022-11-27T04:14:05.374Z,11.47
2022-11-27T04:17:06.958Z,12.40
2022-11-27T04:20:08.773Z,10.50
2022-11-27T04:23:10.683Z,11.27
2022-11-27T04:26:12.337Z,15.10
2022-11-27T04:29:14.002Z,14.53
2022-11-27T04:32:15.676Z,15.70
2022-11-27T04:35:17.264Z,14.93
2022-11-27T04:38:19.315Z,14.17
2022-11-27T04:41:20.893Z,16.27
2022-11-27T04:44:22.876Z,14.63
2022-11-27T04:47:24.440Z,15.40
2022-11-27T04:50:26.064Z,12.73
2022-11-27T04:53:27.636Z,13.93
2022-11-27T04:56:29.238Z,15.30
2022-11-27T04:59:30.830Z,15.13
2022-11-27T05:02:32.447Z,14.57
2022-11-27T05:05:34.110Z,14.60
2022-11-27T05:08:35.704Z,14.13
2022-11-27T05:11:37.421Z,14.57
2022-11-27T05:14:39.318Z,15.90
2022-11-27T05:17:41.166Z,15.90
2022-11-27T05:20:42.814Z,15.87
2022-11-27T05:23:44.392Z,14.43
2022-11-27T05:26:46.495Z,15.47
2022-11-27T05:29:48.119Z,15.83
2022-11-27T05:32:49.832Z,15.73
2022-11-27T05:35:51.467Z,16.67
2022-11-27T05:38:53.080Z,13.53
2022-11-27T05:41:54.640Z,15.13
2022-11-27T05:44:58.480Z,16.73
2022-11-27T05:48:00.316Z,17.83
2022-11-27T05:51:02.432Z,19.53
2022-11-27T05:54:04.046Z,14.10
2022-11-27T05:57:05.662Z,17.60
2022-11-27T06:00:07.677Z,15.30
2022-11-27T06:03:09.269Z,14.43
2022-11-27T06:06:12.618Z,16.27
2022-11-27T06:09:14.208Z,15.67
2022-11-27T06:12:15.917Z,17.03
2022-11-27T06:15:17.708Z,16.90
2022-11-27T06:18:19.492Z,20.33
2022-11-27T06:21:21.677Z,19.83
2022-11-27T06:24:23.291Z,18.53
2022-11-27T06:27:24.897Z,19.03
2022-11-27T06:30:26.652Z,18.63
2022-11-27T06:33:28.294Z,21.80
2022-11-27T06:36:37.298Z,21.77
2022-11-27T06:39:39.022Z,20.03
2022-11-27T06:42:40.647Z,17.77
2022-11-27T06:45:42.404Z,16.67
2022-11-27T06:48:45.303Z,19.33
2022-11-27T06:51:48.461Z,18.90
2022-11-27T06:54:50.036Z,21.63
2022-11-27T06:57:51.668Z,20.50
2022-11-27T07:00:59.775Z,20.53
2022-11-27T07:04:01.475Z,20.63
2022-11-27T07:07:03.278Z,22.60
2022-11-27T07:10:05.188Z,24.63
2022-11-27T07:13:06.762Z,26.87
2022-11-27T07:16:12.145Z,29.27
2022-11-27T07:19:14.768Z,23.87
2022-11-27T07:22:16.341Z,24.13
2022-11-27T07:25:18.000Z,23.60
2022-11-27T07:28:19.660Z,22.67
2022-11-27T07:31:22.399Z,23.13
2022-11-27T07:34:24.046Z,25.50
2022-11-27T07:37:25.732Z,25.73
2022-11-27T07:40:29.448Z,19.17
2022-11-27T07:43:31.678Z,21.37
2022-11-27T07:46:33.360Z,22.70
2022-11-27T07:49:34.935Z,25.00
2022-11-27T07:52:41.463Z,24.60
2022-11-27T07:55:43.879Z,35.93
2022-11-27T07:58:45.994Z,46.77
2022-11-27T08:01:47.595Z,39.93
2022-11-27T08:04:49.209Z,46.53
2022-11-27T08:07:50.852Z,43.73
2022-11-27T08:10:52.482Z,41.10
2022-11-27T08:13:58.524Z,40.93
2022-11-27T08:17:00.158Z,40.90
2022-11-27T08:20:01.846Z,39.53
2022-11-27T08:23:03.628Z,36.63
2022-11-27T08:26:07.741Z,34.53
2022-11-27T08:29:11.253Z,30.60
2022-11-27T08:32:13.082Z,29.07
2022-11-27T08:35:14.743Z,31.47
2022-11-27T08:38:16.575Z,33.27
2022-11-27T08:41:18.223Z,29.60
2022-11-27T08:44:19.905Z,36.83
2022-11-27T08:47:21.481Z,39.27
2022-11-27T08:50:23.090Z,31.43
2022-11-27T08:53:24.975Z,32.67
2022-11-27T08:56:26.634Z,30.80
2022-11-27T08:59:28.207Z,30.67
2022-11-27T09:02:29.866Z,27.93
2022-11-27T09:05:32.057Z,26.40
2022-11-27T09:08:33.713Z,25.70
2022-11-27T09:11:35.473Z,31.07
2022-11-27T09:14:37.142Z,26.10
2022-11-27T09:17:38.748Z,25.53
2022-11-27T09:20:40.471Z,29.53
2022-11-27T09:23:42.163Z,26.33
2022-11-27T09:26:44.835Z,20.67
2022-11-27T09:29:46.490Z,19.53
2022-11-27T09:32:48.069Z,20.33
2022-11-27T09:35:49.669Z,16.43
2022-11-27T09:38:51.475Z,19.00
2022-11-27T09:41:55.058Z,15.87
2022-11-27T09:44:58.935Z,13.90
2022-11-27T09:48:03.751Z,13.17
2022-11-27T09:51:15.179Z,13.50
2022-11-27T09:54:19.934Z,12.70
2022-11-27T09:57:27.674Z,12.50
2022-11-27T10:00:29.533Z,12.33
2022-11-27T10:03:31.196Z,11.67
2022-11-27T10:06:59.264Z,12.10
2022-11-27T10:10:04.015Z,13.10
2022-11-27T10:13:39.084Z,14.23
2022-11-27T10:17:00.986Z,14.90
2022-11-27T10:20:05.615Z,15.30
2022-11-27T10:23:16.241Z,18.10
2022-11-27T10:26:25.854Z,18.67
2022-11-27T10:29:36.266Z,25.67
2022-11-27T10:36:00.991Z,23.13
2022-11-27T10:39:03.191Z,20.47
2022-11-27T10:42:13.459Z,17.77
2022-11-27T10:45:21.985Z,17.90
2022-11-27T10:48:24.119Z,15.17
2022-11-27T10:51:31.018Z,10.63
2022-11-27T10:54:36.074Z,8.80
2022-11-27T10:57:44.176Z,8.03
2022-11-27T11:00:45.821Z,7.90
2022-11-27T11:03:47.554Z,6.97
2022-11-27T11:06:50.183Z,8.50
2022-11-27T11:09:51.898Z,8.73
2022-11-27T11:13:05.803Z,9.17
2022-11-27T11:16:19.427Z,9.17
2022-11-27T11:19:30.937Z,7.03
2022-11-27T11:22:34.391Z,6.27
2022-11-27T11:25:35.936Z,5.40
2022-11-27T11:28:43.925Z,6.10
2022-11-27T11:31:45.621Z,6.80
2022-11-27T11:34:53.977Z,5.23
2022-11-27T11:37:59.405Z,7.60
2022-11-27T11:41:07.623Z,28.33
2022-11-27T11:44:20.199Z,45.07
2022-11-27T11:47:25.351Z,9.83
2022-11-27T11:50:26.971Z,8.73
2022-11-27T11:53:34.537Z,9.33
2022-11-27T11:56:40.706Z,9.93
2022-11-27T11:59:46.349Z,8.53
2022-11-27T12:03:06.446Z,10.10
2022-11-27T12:06:17.187Z,9.37
2022-11-27T12:09:27.586Z,7.63
2022-11-27T12:12:29.104Z,6.93
2022-11-27T12:15:36.818Z,6.60
2022-11-27T12:19:04.381Z,8.60
2022-11-27T12:22:21.376Z,8.77
2022-11-27T12:25:34.183Z,11.10
2022-11-27T12:28:44.952Z,10.57
2022-11-27T12:32:12.507Z,7.43
2022-11-27T12:35:14.053Z,9.40
2022-11-27T12:38:24.893Z,10.87
2022-11-27T12:41:50.447Z,9.93
2022-11-27T12:45:10.691Z,7.50
2022-11-27T12:48:12.235Z,10.77
2022-11-27T12:51:19.359Z,8.10
2022-11-27T12:54:23.592Z,9.90
2022-11-27T12:57:33.999Z,12.57
2022-11-27T13:00:38.170Z,13.50
2022-11-27T13:03:59.106Z,14.07
2022-11-27T13:07:10.011Z,10.90
2022-11-27T13:10:11.659Z,12.23
2022-11-27T13:13:22.539Z,14.53
2022-11-27T13:16:27.614Z,10.43
2022-11-27T13:19:36.888Z,13.13
2022-11-27T13:22:38.615Z,14.70
2022-11-27T13:25:43.717Z,16.20
2022-11-27T13:28:47.175Z,11.70
2022-11-27T13:31:51.896Z,13.67
2022-11-27T13:34:55.340Z,13.87
2022-11-27T13:38:07.694Z,23.17
2022-11-27T13:41:19.759Z,21.30
2022-11-27T13:44:26.008Z,25.90
2022-11-27T13:47:28.788Z,19.40
2022-11-27T13:50:31.625Z,9.20
2022-11-27T13:53:40.914Z,9.67
2022-11-27T13:56:42.844Z,10.93
2022-11-27T13:59:59.385Z,8.87
2022-11-27T14:03:01.275Z,14.63
2022-11-27T14:06:02.994Z,14.00
2022-11-27T14:09:06.135Z,12.73
2022-11-27T14:12:26.720Z,14.63
2022-11-27T14:15:29.756Z,13.63
2022-11-27T14:18:31.680Z,15.93
2022-11-27T14:21:41.235Z,13.57
2022-11-27T14:24:55.913Z,17.60
2022-11-27T14:27:58.141Z,13.50
2022-11-27T14:31:01.153Z,13.90
2022-11-27T14:34:23.359Z,18.30
2022-11-27T14:37:28.487Z,15.47
2022-11-27T14:40:33.380Z,16.60
2022-11-27T14:43:38.088Z,17.07
2022-11-27T14:46:39.709Z,16.30
2022-11-27T14:49:43.945Z,23.90
2022-11-27T14:52:50.595Z,20.83
2022-11-27T14:55:56.471Z,27.80
2022-11-27T14:58:59.478Z,24.50
2022-11-27T15:02:06.918Z,23.80
2022-11-27T15:05:16.593Z,24.93
2022-11-27T15:08:18.616Z,24.20
2022-11-27T15:11:49.131Z,21.40
2022-11-27T15:14:45.757Z,25.10
2022-11-27T15:17:51.626Z,27.83
2022-11-27T15:20:54.505Z,27.77
2022-11-27T15:23:56.765Z,31.53
2022-11-27T15:27:17.233Z,25.50
2022-11-27T15:30:19.244Z,22.67
2022-11-27T15:33:38.820Z,22.07
2022-11-27T15:36:45.040Z,16.10
2022-11-27T15:39:46.639Z,17.20
2022-11-27T15:42:48.201Z,16.00
2022-11-27T15:45:51.272Z,18.87
2022-11-27T15:48:52.893Z,17.23
2022-11-27T15:51:55.024Z,15.20
2022-11-27T15:54:56.758Z,19.07
2022-11-27T15:57:58.326Z,16.80
2022-11-27T16:00:59.973Z,17.20
2022-11-27T16:04:01.735Z,19.83
2022-11-27T16:07:03.596Z,26.23
2022-11-27T16:10:05.545Z,28.53
2022-11-27T16:13:07.090Z,34.27
2022-11-27T16:16:09.076Z,34.23
2022-11-27T16:19:12.326Z,28.80
2022-11-27T16:22:13.937Z,26.30
2022-11-27T16:25:15.622Z,24.77
2022-11-27T16:28:17.225Z,27.03
2022-11-27T16:31:20.612Z,27.97
2022-11-27T16:34:22.220Z,50.57
2022-11-27T16:37:23.886Z,57.47
2022-11-27T16:40:25.588Z,37.10
2022-11-27T16:43:29.616Z,34.87
2022-11-27T16:46:31.401Z,51.57
2022-11-27T16:49:35.812Z,46.97
2022-11-27T16:52:37.626Z,40.50
2022-11-27T16:55:39.424Z,36.23
2022-11-27T16:58:42.226Z,31.03
2022-11-27T17:01:46.401Z,28.80
2022-11-27T17:04:49.336Z,25.07
2022-11-27T17:07:54.668Z,34.33
2022-11-27T17:10:56.312Z,32.37
2022-11-27T17:14:01.365Z,26.67
2022-11-27T17:17:06.690Z,29.40
2022-11-27T17:20:13.020Z,32.23
2022-11-27T17:23:15.120Z,35.97
2022-11-27T17:26:18.543Z,32.80
2022-11-27T17:29:21.824Z,36.30
2022-11-27T17:32:25.112Z,34.23
2022-11-27T17:35:34.924Z,220.43
2022-11-27T17:38:37.084Z,99.53
2022-11-27T17:41:40.587Z,59.77
2022-11-27T17:44:42.374Z,55.97
2022-11-27T17:47:44.337Z,52.30
2022-11-27T17:50:46.165Z,52.20
2022-11-27T17:53:49.306Z,48.60
2022-11-27T17:56:51.798Z,63.70
2022-11-27T17:59:54.328Z,80.40
2022-11-27T18:02:56.559Z,65.63
2022-11-27T18:06:01.669Z,63.93
2022-11-27T18:09:04.016Z,76.13
2022-11-27T18:12:08.810Z,61.33
2022-11-27T18:15:11.336Z,58.97
2022-11-27T18:18:13.009Z,53.00
2022-11-27T18:21:18.519Z,60.20
2022-11-27T18:24:23.696Z,76.50
2022-11-27T18:27:26.147Z,77.70
2022-11-27T18:30:27.762Z,64.73
2022-11-27T18:33:29.352Z,57.80
2022-11-27T18:36:31.172Z,58.03
2022-11-27T18:39:33.076Z,66.30
2022-11-27T18:42:34.788Z,58.17
2022-11-27T18:45:36.932Z,51.93
2022-11-27T18:48:41.869Z,55.27
2022-11-27T18:51:45.094Z,77.17
2022-11-27T18:54:47.339Z,85.90
2022-11-27T18:57:49.154Z,74.27
2022-11-27T19:00:51.521Z,71.40
2022-11-27T19:03:53.846Z,68.70
2022-11-27T19:06:55.514Z,70.97
2022-11-27T19:09:57.178Z,68.17
2022-11-27T19:12:58.776Z,64.40
2022-11-27T19:16:04.154Z,76.03
2022-11-27T19:19:06.393Z,53.67
2022-11-27T19:22:09.063Z,57.93
2022-11-27T19:25:12.100Z,63.30
2022-11-27T19:28:13.750Z,57.20
2022-11-27T19:31:16.389Z,58.70
2022-11-27T19:34:18.080Z,51.30
2022-11-27T19:37:33.474Z,52.63
2022-11-27T19:40:38.680Z,47.60
2022-11-27T19:43:40.717Z,48.67
2022-11-27T19:46:44.653Z,46.33
2022-11-27T19:49:47.296Z,46.40
2022-11-27T19:52:49.335Z,44.87
2022-11-27T19:55:54.672Z,45.10
2022-11-27T19:58:56.861Z,39.53
2022-11-27T20:01:58.593Z,44.77
2022-11-27T20:05:04.089Z,51.27
2022-11-27T20:08:05.684Z,50.27
2022-11-27T20:11:08.093Z,52.50
2022-11-27T20:14:09.735Z,56.27
2022-11-27T20:17:11.331Z,52.23
2022-11-27T20:20:13.466Z,63.67
2022-11-27T20:23:16.013Z,63.13
2022-11-27T20:26:19.056Z,63.77
2022-11-27T20:29:20.810Z,48.93
2022-11-27T20:32:22.793Z,47.97
2022-11-27T20:35:24.468Z,45.83
2022-11-27T20:38:29.417Z,45.37
2022-11-27T20:41:33.599Z,46.13
2022-11-27T20:44:35.200Z,45.23
2022-11-27T20:47:37.220Z,42.90
2022-11-27T20:50:39.614Z,43.90
2022-11-27T20:53:44.994Z,43.10
2022-11-27T20:56:47.658Z,41.73
2022-11-27T20:59:49.453Z,44.03
2022-11-27T21:02:51.382Z,40.60
2022-11-27T21:05:53.532Z,43.83
2022-11-27T21:08:55.692Z,42.80
2022-11-27T21:11:57.402Z,43.23
2022-11-27T21:14:59.019Z,38.53
2022-11-27T21:18:00.954Z,35.77
2022-11-27T21:21:11.587Z,36.60
2022-11-27T21:24:13.355Z,35.83
2022-11-27T21:27:14.972Z,35.10
2022-11-27T21:30:19.096Z,35.03
2022-11-27T21:33:20.763Z,36.57
2022-11-27T21:36:23.468Z,36.37
2022-11-27T21:39:25.702Z,35.07
2022-11-27T21:42:29.278Z,30.50
2022-11-27T21:45:30.945Z,31.97
2022-11-27T21:48:32.670Z,33.17
2022-11-27T21:51:34.208Z,32.70
2022-11-27T21:54:38.736Z,33.17
2022-11-27T21:57:41.022Z,32.47
2022-11-27T22:00:42.781Z,33.07
2022-11-27T22:03:46.990Z,35.17
2022-11-27T22:06:48.694Z,34.57
2022-11-27T22:09:50.266Z,35.07
2022-11-27T22:12:51.922Z,35.57
2022-11-27T22:15:53.574Z,33.27
2022-11-27T22:18:56.501Z,35.23
2022-11-27T22:21:58.097Z,35.07
2022-11-27T22:25:00.453Z,33.20
2022-11-27T22:28:02.119Z,37.93
2022-11-27T22:31:09.718Z,35.80
2022-11-27T22:34:12.555Z,35.23
2022-11-27T22:37:14.484Z,35.67
2022-11-27T22:40:16.247Z,36.23
2022-11-27T22:43:18.008Z,35.03
2022-11-27T22:46:25.338Z,35.70
2022-11-27T22:49:27.450Z,37.43
2022-11-27T22:52:29.101Z,37.70
2022-11-27T22:55:30.705Z,37.00
2022-11-27T22:58:33.793Z,37.30
2022-11-27T23:01:37.717Z,35.93
2022-11-27T23:04:39.428Z,35.67
2022-11-27T23:07:41.234Z,36.90
2022-11-27T23:10:42.873Z,36.97
2022-11-27T23:13:49.432Z,36.57
2022-11-27T23:16:51.714Z,34.63
2022-11-27T23:19:53.410Z,22.10
2022-11-27T23:22:54.976Z,22.00
2022-11-27T23:25:56.602Z,21.67
2022-11-27T23:28:58.185Z,19.23
2022-11-27T23:31:59.821Z,18.70
2022-11-27T23:35:01.378Z,23.13
2022-11-27T23:38:03.560Z,32.83
2022-11-27T23:41:12.880Z,38.73
2022-11-27T23:44:14.679Z,38.80
2022-11-27T23:47:16.325Z,36.70
2022-11-27T23:50:18.040Z,33.77
2022-11-27T23:53:19.632Z,30.60
2022-11-27T23:56:22.642Z,25.80
2022-11-27T23:59:24.192Z,22.33
